createdAt,value
2018-01-11T00:00:29.888Z,1006.95
2018-01-11T00:01:30.274Z,1006.93
2018-01-11T00:02:29.952Z,1006.95
2018-01-11T00:03:29.997Z,1006.92
2018-01-11T00:04:30.093Z,1006.94
2018-01-11T00:05:30.180Z,1006.93
2018-01-11T00:06:30.076Z,1006.93
2018-01-11T00:07:30.404Z,1006.91
2018-01-11T00:08:30.144Z,1006.94
2018-01-11T00:09:30.166Z,1006.91
2018-01-11T00:10:30.198Z,1006.90
2018-01-11T00:11:30.283Z,1006.90
2018-01-11T00:12:30.264Z,1006.90
2018-01-11T00:13:30.649Z,1006.95
2018-01-11T00:15:30.356Z,1006.93
2018-01-11T00:16:30.395Z,1006.91
2018-01-11T00:17:30.416Z,1006.95
2018-01-11T00:18:30.445Z,1006.93
2018-01-11T00:19:30.482Z,1006.94
2018-01-11T00:20:30.858Z,1006.92
2018-01-11T00:21:30.564Z,1006.90
2018-01-11T00:22:30.568Z,1006.86
2018-01-11T00:23:30.652Z,1006.85
2018-01-11T00:24:30.640Z,1006.89
2018-01-11T00:25:30.667Z,1006.84
2018-01-11T00:26:30.699Z,1006.85
2018-01-11T00:27:31.029Z,1006.83
2018-01-11T00:28:30.863Z,1006.85
2018-01-11T00:29:30.838Z,1006.86
2018-01-11T00:30:30.817Z,1006.87
2018-01-11T00:31:30.846Z,1006.86
2018-01-11T00:32:30.885Z,1006.86
2018-01-11T00:33:30.920Z,1006.88
2018-01-11T00:34:31.346Z,1006.88
2018-01-11T00:35:30.974Z,1006.85
2018-01-11T00:36:31.055Z,1006.84
2018-01-11T00:37:31.042Z,1006.84
2018-01-11T00:38:31.070Z,1006.86
2018-01-11T00:39:31.231Z,1006.86
2018-01-11T00:40:31.132Z,1006.89
2018-01-11T00:41:31.470Z,1006.89
2018-01-11T00:42:31.246Z,1006.84
2018-01-11T00:43:31.220Z,1006.84
2018-01-11T00:44:31.252Z,1006.87
2018-01-11T00:45:31.285Z,1006.83
2018-01-11T00:46:31.314Z,1006.82
2018-01-11T00:47:31.342Z,1006.83
2018-01-11T00:48:31.729Z,1006.83
2018-01-11T00:49:31.417Z,1006.84
2018-01-11T00:50:31.472Z,1006.81
2018-01-11T00:51:31.478Z,1006.82
2018-01-11T00:52:31.497Z,1006.79
2018-01-11T00:53:31.535Z,1006.75
2018-01-11T00:54:31.564Z,1006.76
2018-01-11T00:55:31.967Z,1006.79
2018-01-11T00:56:31.626Z,1006.75
2018-01-11T00:57:31.655Z,1006.77
2018-01-11T00:58:31.765Z,1006.77
2018-01-11T00:59:31.715Z,1006.77
2018-01-11T01:00:31.746Z,1006.77
2018-01-11T01:01:31.776Z,1006.77
2018-01-11T01:02:32.162Z,1006.81
2018-01-11T01:03:31.840Z,1006.79
2018-01-11T01:04:31.869Z,1006.85
2018-01-11T01:05:31.900Z,1006.86
2018-01-11T01:06:31.943Z,1006.88
2018-01-11T01:07:31.962Z,1006.90
2018-01-11T01:08:32.058Z,1006.95
2018-01-11T01:09:32.336Z,1006.97
2018-01-11T01:10:32.070Z,1007.01
2018-01-11T01:11:32.089Z,1007.08
2018-01-11T01:12:32.117Z,1007.08
2018-01-11T01:13:32.150Z,1007.09
2018-01-11T01:14:32.180Z,1007.10
2018-01-11T01:15:32.225Z,1007.11
2018-01-11T01:16:32.545Z,1007.15
2018-01-11T01:17:32.274Z,1007.11
2018-01-11T01:18:32.308Z,1007.16
2018-01-11T01:19:32.334Z,1007.14
2018-01-11T01:20:32.367Z,1007.16
2018-01-11T01:21:32.394Z,1007.16
2018-01-11T01:23:32.851Z,1007.19
2018-01-11T01:24:32.491Z,1007.20
2018-01-11T01:25:32.518Z,1007.18
2018-01-11T01:26:32.553Z,1007.20
2018-01-11T01:27:32.637Z,1007.21
2018-01-11T01:28:32.637Z,1007.24
2018-01-11T01:29:32.643Z,1007.21
2018-01-11T01:30:33.035Z,1007.21
2018-01-11T01:31:32.704Z,1007.24
2018-01-11T01:32:32.744Z,1007.28
2018-01-11T01:33:32.776Z,1007.25
2018-01-11T01:34:32.811Z,1007.25
2018-01-11T01:35:32.844Z,1007.26
2018-01-11T01:36:32.867Z,1007.29
2018-01-11T01:37:33.196Z,1007.31
2018-01-11T01:38:32.922Z,1007.32
2018-01-11T01:39:32.965Z,1007.33
2018-01-11T01:40:32.982Z,1007.36
2018-01-11T01:41:33.015Z,1007.35
2018-01-11T01:42:33.044Z,1007.33
2018-01-11T01:43:33.128Z,1007.37
2018-01-11T01:44:33.410Z,1007.42
2018-01-11T01:45:33.141Z,1007.41
2018-01-11T01:46:33.167Z,1007.41
2018-01-11T01:47:33.199Z,1007.39
2018-01-11T01:48:33.227Z,1007.42
2018-01-11T01:49:33.276Z,1007.39
2018-01-11T01:50:33.290Z,1007.42
2018-01-11T01:51:33.670Z,1007.41
2018-01-11T01:52:33.350Z,1007.44
2018-01-11T01:53:33.382Z,1007.47
2018-01-11T01:54:33.414Z,1007.47
2018-01-11T01:55:33.463Z,1007.45
2018-01-11T01:56:33.480Z,1007.44
2018-01-11T01:57:33.855Z,1007.44
2018-01-11T01:58:33.539Z,1007.46
2018-01-11T01:59:33.569Z,1007.43
2018-01-11T02:00:33.652Z,1007.44
2018-01-11T02:01:33.649Z,1007.43
2018-01-11T02:02:33.662Z,1007.44
2018-01-11T02:03:33.998Z,1007.43
2018-01-11T02:04:33.724Z,1007.48
2018-01-11T02:05:33.752Z,1007.52
2018-01-11T02:06:33.784Z,1007.55
2018-01-11T02:07:33.829Z,1007.55
2018-01-11T02:08:33.868Z,1007.52
2018-01-11T02:09:34.181Z,1007.56
2018-01-11T02:10:33.962Z,1007.57
2018-01-11T02:11:33.939Z,1007.60
2018-01-11T02:12:33.990Z,1007.58
2018-01-11T02:13:34.003Z,1007.58
2018-01-11T02:14:34.062Z,1007.57
2018-01-11T02:15:34.062Z,1007.57
2018-01-11T02:16:34.390Z,1007.56
2018-01-11T02:17:34.123Z,1007.58
2018-01-11T02:18:34.152Z,1007.56
2018-01-11T02:19:34.186Z,1007.56
2018-01-11T02:20:34.217Z,1007.56
2018-01-11T02:21:34.249Z,1007.58
2018-01-11T02:22:34.275Z,1007.55
2018-01-11T02:23:34.658Z,1007.56
2018-01-11T02:24:34.338Z,1007.58
2018-01-11T02:25:34.366Z,1007.54
2018-01-11T02:26:34.400Z,1007.55
2018-01-11T02:27:34.430Z,1007.53
2018-01-11T02:28:34.473Z,1007.54
2018-01-11T02:29:34.490Z,1007.49
2018-01-11T02:30:34.831Z,1007.49
2018-01-11T02:31:34.552Z,1007.45
2018-01-11T02:32:34.590Z,1007.51
2018-01-11T02:33:34.621Z,1007.49
2018-01-11T02:34:34.703Z,1007.51
2018-01-11T02:35:34.675Z,1007.50
2018-01-11T02:36:34.709Z,1007.52
2018-01-11T02:37:36.543Z,1007.53
2018-01-11T02:38:34.776Z,1007.55
2018-01-11T02:39:34.802Z,1007.54
2018-01-11T02:40:34.830Z,1007.53
2018-01-11T02:41:34.868Z,1007.57
2018-01-11T02:42:34.896Z,1007.57
2018-01-11T02:43:34.924Z,1007.60
2018-01-11T02:44:35.303Z,1007.61
2018-01-11T02:45:34.990Z,1007.62
2018-01-11T02:46:35.023Z,1007.63
2018-01-11T02:47:35.053Z,1007.63
2018-01-11T02:48:35.082Z,1007.66
2018-01-11T02:49:35.118Z,1007.64
2018-01-11T02:50:35.146Z,1007.67
2018-01-11T02:51:35.535Z,1007.72
2018-01-11T02:52:35.208Z,1007.70
2018-01-11T02:53:35.234Z,1007.67
2018-01-11T02:54:35.267Z,1007.71
2018-01-11T02:55:35.296Z,1007.71
2018-01-11T02:56:35.324Z,1007.69
2018-01-11T02:57:35.354Z,1007.70
2018-01-11T02:58:35.685Z,1007.73
2018-01-11T02:59:35.628Z,1007.71
2018-01-11T03:00:35.499Z,1007.75
2018-01-11T03:01:35.478Z,1007.75
2018-01-11T03:03:35.543Z,1007.78
2018-01-11T03:04:35.572Z,1007.75
2018-01-11T03:05:35.956Z,1007.78
2018-01-11T03:06:35.643Z,1007.76
2018-01-11T03:07:35.663Z,1007.74
2018-01-11T03:08:35.695Z,1007.78
2018-01-11T03:09:35.728Z,1007.74
2018-01-11T03:10:35.760Z,1007.77
2018-01-11T03:11:35.807Z,1007.75
2018-01-11T03:12:36.221Z,1007.76
2018-01-11T03:13:35.851Z,1007.72
2018-01-11T03:14:35.894Z,1007.74
2018-01-11T03:15:35.909Z,1007.74
2018-01-11T03:16:35.936Z,1007.73
2018-01-11T03:17:35.973Z,1007.77
2018-01-11T03:18:36.006Z,1007.76
2018-01-11T03:19:36.332Z,1007.76
2018-01-11T03:20:36.061Z,1007.75
2018-01-11T03:21:36.097Z,1007.77
2018-01-11T03:22:36.125Z,1007.75
2018-01-11T03:23:36.156Z,1007.74
2018-01-11T03:24:36.192Z,1007.75
2018-01-11T03:25:36.224Z,1007.76
2018-01-11T03:26:36.605Z,1007.75
2018-01-11T03:27:36.297Z,1007.75
2018-01-11T03:28:36.312Z,1007.77
2018-01-11T03:29:36.346Z,1007.77
2018-01-11T03:30:36.371Z,1007.79
2018-01-11T03:31:36.426Z,1007.81
2018-01-11T03:32:36.487Z,1007.81
2018-01-11T03:33:36.812Z,1007.79
2018-01-11T03:34:36.500Z,1007.81
2018-01-11T03:35:36.522Z,1007.78
2018-01-11T03:36:36.562Z,1007.80
2018-01-11T03:37:36.586Z,1007.85
2018-01-11T03:38:36.636Z,1007.84
2018-01-11T03:39:36.848Z,1007.83
2018-01-11T03:40:37.226Z,1007.83
2018-01-11T03:41:36.711Z,1007.83
2018-01-11T03:42:36.777Z,1007.83
2018-01-11T03:43:36.782Z,1007.84
2018-01-11T03:44:36.804Z,1007.78
2018-01-11T03:45:36.834Z,1007.80
2018-01-11T03:47:36.896Z,1007.83
2018-01-11T03:48:36.972Z,1007.84
2018-01-11T03:49:36.981Z,1007.86
2018-01-11T03:50:37.158Z,1007.87
2018-01-11T03:52:37.053Z,1007.91
2018-01-11T03:53:37.467Z,1007.92
2018-01-11T03:54:37.113Z,1007.91
2018-01-11T03:55:37.138Z,1007.92
2018-01-11T03:56:37.175Z,1007.93
2018-01-11T03:57:39.344Z,1007.92
2018-01-11T03:58:37.240Z,1007.91
2018-01-11T03:59:37.617Z,1007.90
2018-01-11T04:00:37.291Z,1007.88
2018-01-11T04:01:37.334Z,1007.89
2018-01-11T04:02:37.360Z,1007.91
2018-01-11T04:03:37.385Z,1007.89
2018-01-11T04:04:37.980Z,1007.93
2018-01-11T04:05:37.810Z,1007.92
2018-01-11T04:06:38.405Z,1007.93
2018-01-11T04:07:37.518Z,1007.94
2018-01-11T04:08:37.547Z,1007.91
2018-01-11T04:09:37.602Z,1007.94
2018-01-11T04:10:37.614Z,1007.90
2018-01-11T04:11:37.640Z,1007.93
2018-01-11T04:12:38.035Z,1007.96
2018-01-11T04:13:37.701Z,1007.94
2018-01-11T04:14:37.742Z,1007.97
2018-01-11T04:15:37.817Z,1007.96
2018-01-11T04:16:37.792Z,1007.99
2018-01-11T04:17:37.823Z,1008.00
2018-01-11T04:18:37.870Z,1007.98
2018-01-11T04:19:38.183Z,1008.02
2018-01-11T04:20:37.917Z,1007.97
2018-01-11T04:21:37.944Z,1008.01
2018-01-11T04:22:38.030Z,1007.96
2018-01-11T04:23:38.008Z,1008.00
2018-01-11T04:24:38.046Z,1008.01
2018-01-11T04:25:38.071Z,1007.99
2018-01-11T04:26:38.470Z,1008.07
2018-01-11T04:27:38.137Z,1008.05
2018-01-11T04:28:38.174Z,1008.01
2018-01-11T04:29:38.192Z,1008.05
2018-01-11T04:30:38.227Z,1008.04
2018-01-11T04:31:38.272Z,1008.07
2018-01-11T04:32:38.332Z,1008.07
2018-01-11T04:33:38.673Z,1008.07
2018-01-11T04:34:38.344Z,1008.08
2018-01-11T04:35:38.430Z,1008.09
2018-01-11T04:36:38.413Z,1008.07
2018-01-11T04:37:38.440Z,1008.12
2018-01-11T04:38:38.468Z,1008.13
2018-01-11T04:39:38.509Z,1008.14
2018-01-11T04:40:38.879Z,1008.17
2018-01-11T04:41:38.579Z,1008.14
2018-01-11T04:42:38.589Z,1008.15
2018-01-11T04:43:38.697Z,1008.15
2018-01-11T04:45:38.686Z,1008.15
2018-01-11T04:46:38.716Z,1008.16
2018-01-11T04:47:39.099Z,1008.17
2018-01-11T04:48:38.829Z,1008.21
2018-01-11T04:49:38.808Z,1008.21
2018-01-11T04:50:38.863Z,1008.23
2018-01-11T04:51:38.868Z,1008.28
2018-01-11T04:52:38.902Z,1008.30
2018-01-11T04:53:38.931Z,1008.31
2018-01-11T04:54:39.310Z,1008.32
2018-01-11T04:55:39.022Z,1008.34
2018-01-11T04:56:39.031Z,1008.36
2018-01-11T04:57:39.052Z,1008.36
2018-01-11T04:58:39.083Z,1008.36
2018-01-11T04:59:39.113Z,1008.31
2018-01-11T05:00:39.146Z,1008.30
2018-01-11T05:01:39.558Z,1008.32
2018-01-11T05:02:39.223Z,1008.29
2018-01-11T05:03:39.236Z,1008.31
2018-01-11T05:04:39.275Z,1008.31
2018-01-11T05:05:39.306Z,1008.32
2018-01-11T05:06:39.330Z,1008.32
2018-01-11T05:07:39.357Z,1008.33
2018-01-11T05:08:39.738Z,1008.33
2018-01-11T05:09:39.438Z,1008.33
2018-01-11T05:10:39.451Z,1008.39
2018-01-11T05:11:39.483Z,1008.36
2018-01-11T05:12:39.516Z,1008.39
2018-01-11T05:13:39.563Z,1008.38
2018-01-11T05:14:39.577Z,1008.39
2018-01-11T05:15:39.903Z,1008.41
2018-01-11T05:16:39.639Z,1008.46
2018-01-11T05:17:39.663Z,1008.44
2018-01-11T05:18:39.698Z,1008.45
2018-01-11T05:19:39.730Z,1008.50
2018-01-11T05:20:39.762Z,1008.48
2018-01-11T05:21:39.786Z,1008.52
2018-01-11T05:22:40.171Z,1008.49
2018-01-11T05:23:39.850Z,1008.56
2018-01-11T05:24:39.880Z,1008.54
2018-01-11T05:25:39.914Z,1008.56
2018-01-11T05:26:40.381Z,1008.57
2018-01-11T05:27:39.971Z,1008.59
2018-01-11T05:28:40.353Z,1008.64
2018-01-11T05:29:40.036Z,1008.67
2018-01-11T05:30:40.066Z,1008.67
2018-01-11T05:31:40.106Z,1008.66
2018-01-11T05:32:40.138Z,1008.68
2018-01-11T05:33:40.168Z,1008.67
2018-01-11T05:34:40.495Z,1008.70
2018-01-11T05:35:40.219Z,1008.68
2018-01-11T05:36:40.247Z,1008.69
2018-01-11T05:37:40.283Z,1008.72
2018-01-11T05:38:40.314Z,1008.69
2018-01-11T05:39:40.344Z,1008.72
2018-01-11T05:40:40.724Z,1008.72
2018-01-11T05:41:40.415Z,1008.75
2018-01-11T05:42:40.435Z,1008.72
2018-01-11T05:43:40.469Z,1008.77
2018-01-11T05:44:40.495Z,1008.75
2018-01-11T05:45:40.524Z,1008.75
2018-01-11T05:46:40.567Z,1008.79
2018-01-11T05:47:40.935Z,1008.79
2018-01-11T05:48:40.618Z,1008.80
2018-01-11T05:49:40.647Z,1008.86
2018-01-11T05:50:40.680Z,1008.88
2018-01-11T05:51:40.759Z,1008.85
2018-01-11T05:52:40.744Z,1008.83
2018-01-11T05:53:40.767Z,1008.84
2018-01-11T05:54:41.154Z,1008.85
2018-01-11T05:55:40.832Z,1008.85
2018-01-11T05:56:40.881Z,1008.87
2018-01-11T05:57:40.891Z,1008.89
2018-01-11T05:58:40.926Z,1008.91
2018-01-11T05:59:40.959Z,1008.96
2018-01-11T06:00:40.989Z,1008.95
2018-01-11T06:01:41.317Z,1009.00
2018-01-11T06:02:41.051Z,1009.01
2018-01-11T06:03:41.086Z,1009.00
2018-01-11T06:04:41.106Z,1009.03
2018-01-11T06:05:41.141Z,1008.99
2018-01-11T06:06:41.167Z,1009.02
2018-01-11T06:07:41.201Z,1009.02
2018-01-11T06:08:41.583Z,1009.00
2018-01-11T06:09:41.268Z,1009.03
2018-01-11T06:10:41.292Z,1009.03
2018-01-11T06:11:41.325Z,1009.06
2018-01-11T06:12:41.354Z,1009.07
2018-01-11T06:13:41.424Z,1009.08
2018-01-11T06:14:41.418Z,1009.12
2018-01-11T06:15:41.817Z,1009.16
2018-01-11T06:16:41.473Z,1009.15
2018-01-11T06:17:41.511Z,1009.14
2018-01-11T06:18:41.542Z,1009.16
2018-01-11T06:19:41.566Z,1009.20
2018-01-11T06:20:42.551Z,1009.20
2018-01-11T06:21:41.631Z,1009.27
2018-01-11T06:22:41.969Z,1009.23
2018-01-11T06:23:41.688Z,1009.23
2018-01-11T06:24:41.725Z,1009.27
2018-01-11T06:25:41.758Z,1009.26
2018-01-11T06:26:41.789Z,1009.29
2018-01-11T06:27:41.812Z,1009.32
2018-01-11T06:28:41.845Z,1009.37
2018-01-11T06:29:42.233Z,1009.36
2018-01-11T06:30:41.917Z,1009.39
2018-01-11T06:32:43.254Z,1009.43
2018-01-11T06:35:42.411Z,1009.46
2018-01-11T06:36:42.156Z,1009.49
2018-01-11T06:37:42.126Z,1009.51
2018-01-11T06:38:42.187Z,1009.51
2018-01-11T06:39:42.182Z,1009.52
2018-01-11T06:40:42.213Z,1009.57
2018-01-11T06:41:42.247Z,1009.50
2018-01-11T06:42:42.638Z,1009.54
2018-01-11T06:43:42.305Z,1009.52
2018-01-11T06:44:42.332Z,1009.55
2018-01-11T06:45:42.370Z,1009.54
2018-01-11T06:46:42.413Z,1009.58
2018-01-11T06:47:42.518Z,1009.56
2018-01-11T06:48:42.477Z,1009.62
2018-01-11T06:49:42.843Z,1009.56
2018-01-11T06:50:42.525Z,1009.62
2018-01-11T06:51:42.575Z,1009.60
2018-01-11T06:52:42.581Z,1009.62
2018-01-11T06:53:42.656Z,1009.62
2018-01-11T06:54:42.642Z,1009.66
2018-01-11T06:55:43.022Z,1009.67
2018-01-11T06:56:42.702Z,1009.65
2018-01-11T06:57:42.755Z,1009.68
2018-01-11T06:58:42.764Z,1009.67
2018-01-11T07:00:42.830Z,1009.67
2018-01-11T07:01:43.205Z,1009.72
2018-01-11T07:02:42.889Z,1009.69
2018-01-11T07:03:42.925Z,1009.72
2018-01-11T07:04:42.951Z,1009.76
2018-01-11T07:05:42.978Z,1009.74
2018-01-11T07:06:43.015Z,1009.76
2018-01-11T07:07:43.343Z,1009.78
2018-01-11T07:09:43.100Z,1009.80
2018-01-11T07:10:43.135Z,1009.80
2018-01-11T07:11:43.164Z,1009.82
2018-01-11T07:12:43.195Z,1009.84
2018-01-11T07:13:43.225Z,1009.85
2018-01-11T07:14:43.264Z,1009.84
2018-01-11T07:15:43.286Z,1009.92
2018-01-11T07:16:43.318Z,1009.87
2018-01-11T07:17:43.452Z,1009.91
2018-01-11T07:18:43.378Z,1009.94
2018-01-11T07:19:43.654Z,1009.93
2018-01-11T07:20:43.796Z,1009.95
2018-01-11T07:21:43.519Z,1009.98
2018-01-11T07:22:43.500Z,1009.95
2018-01-11T07:23:43.580Z,1009.97
2018-01-11T07:24:43.587Z,1009.97
2018-01-11T07:25:43.607Z,1009.97
2018-01-11T07:26:43.697Z,1009.98
2018-01-11T07:27:44.021Z,1010.01
2018-01-11T07:28:43.687Z,1010.01
2018-01-11T07:29:43.715Z,1010.03
2018-01-11T07:30:43.754Z,1010.04
2018-01-11T07:31:43.775Z,1010.08
2018-01-11T07:32:43.807Z,1010.07
2018-01-11T07:33:43.894Z,1010.05
2018-01-11T07:34:44.218Z,1010.08
2018-01-11T07:35:43.935Z,1010.07
2018-01-11T07:36:43.927Z,1010.10
2018-01-11T07:37:43.962Z,1010.09
2018-01-11T07:38:44.052Z,1010.11
2018-01-11T07:39:44.026Z,1010.09
2018-01-11T07:40:44.055Z,1010.12
2018-01-11T07:41:44.476Z,1010.11
2018-01-11T07:42:44.997Z,1010.15
2018-01-11T07:43:45.432Z,1010.11
2018-01-11T07:44:44.174Z,1010.15
2018-01-11T07:45:44.307Z,1010.16
2018-01-11T07:46:44.289Z,1010.17
2018-01-11T07:47:46.047Z,1010.19
2018-01-11T07:48:44.653Z,1010.21
2018-01-11T07:49:44.339Z,1010.19
2018-01-11T07:50:44.422Z,1010.22
2018-01-11T07:51:44.395Z,1010.22
2018-01-11T07:52:44.435Z,1010.22
2018-01-11T07:53:44.460Z,1010.26
2018-01-11T07:54:44.486Z,1010.27
2018-01-11T07:55:44.871Z,1010.27
2018-01-11T07:56:44.549Z,1010.32
2018-01-11T07:57:44.618Z,1010.37
2018-01-11T07:58:44.619Z,1010.33
2018-01-11T07:59:44.687Z,1010.38
2018-01-11T08:00:44.734Z,1010.37
2018-01-11T08:01:44.709Z,1010.40
2018-01-11T08:02:45.083Z,1010.45
2018-01-11T08:03:44.772Z,1010.43
2018-01-11T08:04:44.803Z,1010.46
2018-01-11T08:05:44.822Z,1010.49
2018-01-11T08:06:44.857Z,1010.48
2018-01-11T08:07:44.899Z,1010.50
2018-01-11T08:08:45.174Z,1010.51
2018-01-11T08:09:45.294Z,1010.51
2018-01-11T08:11:45.042Z,1010.55
2018-01-11T08:12:45.079Z,1010.59
2018-01-11T08:13:45.125Z,1010.55
2018-01-11T08:14:45.101Z,1010.59
2018-01-11T08:15:45.130Z,1010.63
2018-01-11T08:16:45.512Z,1010.59
2018-01-11T08:17:45.191Z,1010.63
2018-01-11T08:18:45.242Z,1010.63
2018-01-11T08:19:45.264Z,1010.62
2018-01-11T08:22:45.693Z,1010.73
2018-01-11T08:23:45.397Z,1010.75
2018-01-11T08:24:45.419Z,1010.76
2018-01-11T08:25:45.446Z,1010.78
2018-01-11T08:26:45.471Z,1010.78
2018-01-11T08:27:45.502Z,1010.79
2018-01-11T08:28:45.880Z,1010.80
2018-01-11T08:29:45.578Z,1010.83
2018-01-11T08:30:45.655Z,1010.87
2018-01-11T08:31:46.327Z,1010.87
2018-01-11T08:32:45.658Z,1010.86
2018-01-11T08:33:45.690Z,1010.90
2018-01-11T08:34:46.077Z,1010.94
2018-01-11T08:35:45.778Z,1010.93
2018-01-11T08:36:45.777Z,1010.91
2018-01-11T08:37:45.804Z,1010.96
2018-01-11T08:38:45.837Z,1010.94
2018-01-11T08:39:45.869Z,1011.03
2018-01-11T08:40:45.957Z,1011.00
2018-01-11T08:41:46.229Z,1011.00
2018-01-11T08:42:45.962Z,1011.03
2018-01-11T08:43:46.051Z,1011.03
2018-01-11T08:44:46.022Z,1011.06
2018-01-11T08:45:46.060Z,1011.05
2018-01-11T08:46:46.096Z,1011.08
2018-01-11T08:47:46.114Z,1011.09
2018-01-11T08:48:46.503Z,1011.12
2018-01-11T08:49:46.176Z,1011.12
2018-01-11T08:50:46.213Z,1011.10
2018-01-11T08:51:46.238Z,1011.07
2018-01-11T08:52:46.662Z,1011.10
2018-01-11T08:53:46.306Z,1011.11
2018-01-11T08:54:46.330Z,1011.09
2018-01-11T08:55:46.716Z,1011.12
2018-01-11T08:56:46.391Z,1011.15
2018-01-11T08:57:46.423Z,1011.16
2018-01-11T08:58:46.502Z,1011.18
2018-01-11T08:59:46.684Z,1011.15
2018-01-11T09:00:46.518Z,1011.17
2018-01-11T09:01:46.546Z,1011.22
2018-01-11T09:02:46.943Z,1011.20
2018-01-11T09:03:46.614Z,1011.20
2018-01-11T09:04:46.635Z,1011.23
2018-01-11T09:05:46.720Z,1011.26
2018-01-11T09:06:46.702Z,1011.27
2018-01-11T09:07:46.733Z,1011.33
2018-01-11T09:08:46.765Z,1011.33
2018-01-11T09:09:47.145Z,1011.37
2018-01-11T09:11:46.908Z,1011.41
2018-01-11T09:12:46.890Z,1011.39
2018-01-11T09:13:47.041Z,1011.41
2018-01-11T09:14:46.973Z,1011.41
2018-01-11T09:15:47.002Z,1011.42
2018-01-11T09:16:47.380Z,1011.42
2018-01-11T09:17:47.039Z,1011.50
2018-01-11T09:18:47.073Z,1011.47
2018-01-11T09:19:47.361Z,1011.50
2018-01-11T09:20:47.207Z,1011.49
2018-01-11T09:21:47.171Z,1011.51
2018-01-11T09:22:47.209Z,1011.54
2018-01-11T09:24:00.317Z,1011.55
2018-01-11T09:24:47.275Z,1011.55
2018-01-11T09:25:47.420Z,1011.54
2018-01-11T09:26:47.344Z,1011.59
2018-01-11T09:27:47.350Z,1011.61
2018-01-11T09:28:47.379Z,1011.60
2018-01-11T09:30:47.739Z,1011.63
2018-01-11T09:33:47.532Z,1011.65
2018-01-11T09:34:47.583Z,1011.69
2018-01-11T09:35:47.599Z,1011.67
2018-01-11T09:36:47.629Z,1011.68
2018-01-11T09:37:48.013Z,1011.75
2018-01-11T09:38:47.696Z,1011.70
2018-01-11T09:40:47.781Z,1011.72
2018-01-11T09:42:47.875Z,1011.76
2018-01-11T09:43:48.663Z,1011.76
2018-01-11T09:44:48.227Z,1011.79
2018-01-11T09:45:47.928Z,1011.80
2018-01-11T09:46:47.996Z,1011.78
2018-01-11T09:47:47.967Z,1011.80
2018-01-11T09:48:48.014Z,1011.75
2018-01-11T09:49:48.085Z,1011.75
2018-01-11T09:50:48.075Z,1011.78
2018-01-11T09:51:48.438Z,1011.77
2018-01-11T09:52:48.138Z,1011.78
2018-01-11T09:54:48.194Z,1011.85
2018-01-11T09:55:48.224Z,1011.84
2018-01-11T09:56:48.252Z,1011.86
2018-01-11T09:58:48.686Z,1011.91
2018-01-11T09:59:48.334Z,1011.91
2018-01-11T10:00:48.374Z,1011.93
2018-01-11T10:01:48.403Z,1011.94
2018-01-11T10:03:48.460Z,1011.96
2018-01-11T10:04:48.497Z,1011.99
2018-01-11T10:05:48.842Z,1011.95
2018-01-11T10:06:48.556Z,1011.97
2018-01-11T10:07:48.586Z,1011.98
2018-01-11T10:09:48.650Z,1011.93
2018-01-11T10:10:48.717Z,1011.97
2018-01-11T10:11:49.058Z,1011.96
2018-01-11T10:12:48.746Z,1011.95
2018-01-11T10:13:49.634Z,1011.93
2018-01-11T10:15:48.845Z,1011.93
2018-01-11T10:16:48.891Z,1011.92
2018-01-11T10:17:49.264Z,1011.99
2018-01-11T10:18:48.934Z,1011.95
2018-01-11T10:19:48.963Z,1011.96
2018-01-11T10:20:48.988Z,1011.97
2018-01-11T10:21:49.120Z,1012.02
2018-01-11T10:22:49.071Z,1011.95
2018-01-11T10:23:49.445Z,1011.95
2018-01-11T10:24:49.125Z,1011.99
2018-01-11T10:26:49.261Z,1012.05
2018-01-11T10:27:49.246Z,1012.05
2018-01-11T10:28:49.254Z,1012.05
2018-01-11T10:31:49.722Z,1012.11
2018-01-11T10:32:49.418Z,1012.08
2018-01-11T10:33:49.452Z,1012.07
2018-01-11T10:34:49.440Z,1012.08
2018-01-11T10:35:50.395Z,1012.14
2018-01-11T10:36:49.487Z,1012.08
2018-01-11T10:37:49.872Z,1012.09
2018-01-11T10:38:49.570Z,1012.08
2018-01-11T10:39:49.633Z,1012.08
2018-01-11T10:40:49.615Z,1012.08
2018-01-11T10:41:49.686Z,1012.11
2018-01-11T10:42:49.695Z,1012.12
2018-01-11T10:43:49.712Z,1012.13
2018-01-11T10:44:50.098Z,1012.12
2018-01-11T10:45:49.769Z,1012.09
2018-01-11T10:48:49.870Z,1012.17
2018-01-11T10:49:50.109Z,1012.15
2018-01-11T10:50:49.934Z,1012.17
2018-01-11T10:51:50.464Z,1012.14
2018-01-11T10:56:50.120Z,1012.10
2018-01-11T10:57:50.151Z,1012.14
2018-01-11T10:58:50.533Z,1012.10
2018-01-11T10:59:50.265Z,1012.15
2018-01-11T11:00:50.243Z,1012.15
2018-01-11T11:01:50.277Z,1012.14
2018-01-11T11:02:50.321Z,1012.13
2018-01-11T11:03:50.343Z,1012.14
2018-01-11T11:04:50.370Z,1012.16
2018-01-11T11:05:50.760Z,1012.13
2018-01-11T11:06:50.453Z,1012.15
2018-01-11T11:07:50.461Z,1012.17
2018-01-11T11:08:50.508Z,1012.18
2018-01-11T11:09:50.530Z,1012.16
2018-01-11T11:13:51.000Z,1012.18
2018-01-11T11:14:50.678Z,1012.18
2018-01-11T11:15:50.710Z,1012.20
2018-01-11T11:16:50.741Z,1012.16
2018-01-11T11:17:50.773Z,1012.20
2018-01-11T11:18:50.805Z,1012.18
2018-01-11T11:20:51.227Z,1012.22
2018-01-11T11:22:50.932Z,1012.23
2018-01-11T11:23:50.986Z,1012.22
2018-01-11T11:24:50.995Z,1012.20
2018-01-11T11:25:51.026Z,1012.20
2018-01-11T11:27:51.439Z,1012.18
2018-01-11T11:28:51.170Z,1012.21
2018-01-11T11:29:51.295Z,1012.20
2018-01-11T11:30:51.561Z,1012.19
2018-01-11T11:31:51.227Z,1012.21
2018-01-11T11:32:51.244Z,1012.17
2018-01-11T11:33:51.286Z,1012.17
2018-01-11T11:34:51.659Z,1012.20
2018-01-11T11:35:51.346Z,1012.18
2018-01-11T11:36:51.368Z,1012.16
2018-01-11T11:37:51.406Z,1012.17
2018-01-11T11:38:51.432Z,1012.16
2018-01-11T11:40:51.851Z,1012.14
2018-01-11T11:41:51.611Z,1012.12
2018-01-11T11:43:51.592Z,1012.10
2018-01-11T11:44:51.673Z,1012.12
2018-01-11T11:45:51.674Z,1012.15
2018-01-11T11:46:51.682Z,1012.15
2018-01-11T11:47:52.075Z,1012.14
2018-01-11T11:48:51.779Z,1012.12
2018-01-11T11:49:51.786Z,1012.12
2018-01-11T11:50:51.822Z,1012.17
2018-01-11T11:51:51.854Z,1012.15
2018-01-11T11:52:51.878Z,1012.17
2018-01-11T11:53:52.271Z,1012.15
2018-01-11T11:54:51.936Z,1012.18
2018-01-11T11:55:51.967Z,1012.18
2018-01-11T11:56:52.009Z,1012.21
2018-01-11T11:57:52.078Z,1012.21
2018-01-11T11:58:52.081Z,1012.18
2018-01-11T11:59:52.457Z,1012.22
2018-01-11T12:00:52.373Z,1012.20
2018-01-11T12:02:53.685Z,1012.22
2018-01-11T12:04:52.399Z,1012.23
2018-01-11T12:05:52.334Z,1012.25
2018-01-11T12:06:52.742Z,1012.27
2018-01-11T12:07:52.386Z,1012.25
2018-01-11T12:09:52.412Z,1012.27
2018-01-11T12:10:52.438Z,1012.27
2018-01-11T12:11:52.470Z,1012.30
2018-01-11T12:12:52.907Z,1012.28
2018-01-11T12:13:52.537Z,1012.27
2018-01-11T12:14:52.715Z,1012.29
2018-01-11T12:15:52.597Z,1012.32
2018-01-11T12:16:52.627Z,1012.30
2018-01-11T12:17:52.687Z,1012.31
2018-01-11T12:18:52.753Z,1012.27
2018-01-11T12:19:53.085Z,1012.29
2018-01-11T12:20:52.807Z,1012.30
2018-01-11T12:21:52.783Z,1012.27
2018-01-11T12:22:52.817Z,1012.28
2018-01-11T12:23:52.879Z,1012.26
2018-01-11T12:24:52.891Z,1012.25
2018-01-11T12:25:53.746Z,1012.30
2018-01-11T12:26:53.395Z,1012.29
2018-01-11T12:27:52.973Z,1012.28
2018-01-11T12:28:53.066Z,1012.30
2018-01-11T12:29:53.099Z,1012.29
2018-01-11T12:30:53.065Z,1012.30
2018-01-11T12:31:53.099Z,1012.35
2018-01-11T12:32:53.136Z,1012.32
2018-01-11T12:33:53.530Z,1012.31
2018-01-11T12:34:53.200Z,1012.33
2018-01-11T12:35:53.229Z,1012.30
2018-01-11T12:38:53.330Z,1012.37
2018-01-11T12:39:53.352Z,1012.37
2018-01-11T12:40:53.824Z,1012.40
2018-01-11T12:41:53.427Z,1012.40
2018-01-11T12:42:53.453Z,1012.38
2018-01-11T12:43:53.522Z,1012.40
2018-01-11T12:44:53.530Z,1012.38
2018-01-11T12:45:53.593Z,1012.40
2018-01-11T12:46:53.587Z,1012.43
2018-01-11T12:47:53.606Z,1012.40
2018-01-11T12:49:53.725Z,1012.44
2018-01-11T12:50:53.692Z,1012.43
2018-01-11T12:51:53.730Z,1012.43
2018-01-11T12:52:53.756Z,1012.43
2018-01-11T12:53:54.140Z,1012.43